Time;durP1;ratioP1;P1;durP2;ratioP2;P2;SDS_P1;SDS_P2;PMS_P1;PMS_P2;Temp;Humidity;BMP_temperature;BMP_pressure;BME280_temperature;BME280_humidity;BME280_pressure;Samples;Min_cycle;Max_cycle;Signal;HPM_P1;HPM_P2
2023/08/11 00:01:44;;;;;;;17.67;5.55;;;19.70;99.90;;;19.31;100.00;101737.59;4153612;28;20037;-73
2023/08/11 00:03:45;;;;;;;17.95;5.70;;;19.80;99.90;;;19.31;100.00;101737.59;4121231;28;20026;-73
2023/08/11 00:05:46;;;;;;;21.77;6.18;;;19.80;99.90;;;19.31;100.00;101745.63;4138314;28;20023;-73
2023/08/11 00:07:51;;;;;;;16.83;5.22;;;19.80;99.90;;;19.31;100.00;101739.44;4136937;28;20022;-73
2023/08/11 00:09:52;;;;;;;23.15;6.63;;;19.80;99.90;;;19.30;100.00;101727.09;4153436;28;20029;-73
2023/08/11 00:11:52;;;;;;;15.43;5.60;;;19.80;99.90;;;19.36;100.00;101739.69;4153194;28;20033;-73
2023/08/11 00:13:53;;;;;;;19.20;6.47;;;19.80;99.90;;;19.36;100.00;101737.03;4154112;28;20076;-73
2023/08/11 00:15:55;;;;;;;15.00;5.78;;;19.80;99.90;;;19.38;100.00;101728.81;4154335;28;20030;-73
2023/08/11 00:18:00;;;;;;;19.20;6.05;;;19.80;99.90;;;19.41;100.00;101731.16;4151731;28;20041;-73
2023/08/11 00:20:03;;;;;;;14.82;5.25;;;19.80;99.90;;;19.34;100.00;101725.69;4137715;28;20034;-73
2023/08/11 00:22:06;;;;;;;24.35;7.68;;;19.80;99.90;;;19.37;100.00;101721.81;4130652;28;20482;-73
2023/08/11 00:24:07;;;;;;;15.07;5.80;;;19.80;99.90;;;19.40;100.00;101727.66;4136934;28;20027;-73
2023/08/11 00:26:08;;;;;;;15.05;5.43;;;19.80;99.90;;;19.31;100.00;101712.69;4140114;28;20033;-73
2023/08/11 00:28:08;;;;;;;20.70;7.28;;;19.80;99.90;;;19.42;100.00;101727.44;4152887;28;20030;-73
2023/08/11 00:30:10;;;;;;;17.58;6.25;;;19.80;99.90;;;19.43;100.00;101723.75;4153789;28;20382;-73
2023/08/11 00:32:11;;;;;;;14.07;5.40;;;19.80;99.90;;;19.41;100.00;101718.63;4152792;28;20052;-73
2023/08/11 00:34:12;;;;;;;15.48;5.50;;;19.80;99.90;;;19.36;100.00;101696.91;4154165;28;20038;-73
2023/08/11 00:36:15;;;;;;;17.35;5.40;;;19.90;99.90;;;19.43;100.00;101713.88;4154102;28;20036;-73
2023/08/11 00:38:15;;;;;;;20.23;6.43;;;19.80;99.90;;;19.41;100.00;101717.78;4154091;28;20512;-73
2023/08/11 00:40:16;;;;;;;19.63;6.25;;;19.80;99.90;;;19.40;100.00;101713.44;4153287;28;20022;-73
2023/08/11 00:42:18;;;;;;;19.55;5.22;;;19.80;99.90;;;19.40;100.00;101719.63;4137813;28;20034;-73
2023/08/11 00:44:18;;;;;;;20.48;6.65;;;19.80;99.90;;;19.37;100.00;101717.28;4149804;28;20026;-73
2023/08/11 00:46:23;;;;;;;15.15;5.43;;;19.80;99.90;;;19.40;100.00;101721.47;4169070;28;20033;-73
2023/08/11 00:48:24;;;;;;;14.55;5.50;;;19.80;99.90;;;19.40;100.00;101716.94;4153698;28;20053;-73
2023/08/11 00:50:25;;;;;;;17.27;4.82;;;19.80;99.90;;;19.39;100.00;101715.28;4153913;28;20442;-73
2023/08/11 00:52:26;;;;;;;12.93;5.15;;;19.80;99.90;;;19.38;100.00;101707.41;4169012;28;20072;-73
2023/08/11 00:54:30;;;;;;;13.20;4.63;;;19.80;99.90;;;19.43;100.00;101711.22;4168927;28;20521;-73
2023/08/11 00:56:30;;;;;;;9.18;4.53;;;19.90;99.90;;;19.46;100.00;101721.53;4152379;28;20029;-73
2023/08/11 00:58:33;;;;;;;11.70;4.30;;;19.90;99.90;;;19.45;100.00;101706.50;4153494;28;20034;-73
2023/08/11 01:00:35;;;;;;;9.25;4.93;;;19.90;99.90;;;19.49;100.00;101715.81;4153678;28;20029;-73
2023/08/11 01:02:36;;;;;;;10.00;4.68;;;19.90;99.90;;;19.51;100.00;101710.25;4168689;28;20053;-73
2023/08/11 01:04:39;;;;;;;10.90;5.10;;;19.90;99.90;;;19.50;100.00;101704.09;4153476;28;20017;-73
2023/08/11 01:06:50;;;;;;;12.10;4.35;;;20.00;99.90;;;19.53;100.00;101708.22;4169036;28;20064;-73
2023/08/11 01:09:25;;;;;;;8.93;4.00;;;20.00;99.90;;;19.50;100.00;101712.13;4168799;28;20022;-74
2023/08/11 01:11:38;;;;;;;12.43;4.50;;;20.00;99.90;;;19.47;100.00;101712.50;4152525;28;20061;-73
2023/08/11 01:13:44;;;;;;;9.20;3.80;;;20.00;99.90;;;19.52;100.00;101722.63;4153196;28;20065;-74
2023/08/11 01:16:07;;;;;;;11.20;4.78;;;20.00;99.90;;;19.51;100.00;101708.41;4164288;28;20030;-73
2023/08/11 01:18:10;;;;;;;12.80;5.18;;;20.00;99.90;;;19.52;100.00;101707.41;4152264;28;20034;-73
2023/08/11 01:20:15;;;;;;;19.75;6.25;;;20.00;99.90;;;19.54;100.00;101708.03;4168645;28;20124;-73
2023/08/11 01:22:28;;;;;;;14.50;5.30;;;20.00;99.90;;;19.54;100.00;101700.00;4136161;28;20054;-73
2023/08/11 01:24:31;;;;;;;10.65;4.88;;;20.00;99.90;;;19.51;100.00;101700.38;4139847;28;20034;-74
2023/08/11 01:26:33;;;;;;;15.90;5.70;;;20.00;99.90;;;19.54;100.00;101691.13;4151918;28;20100;-74
2023/08/11 01:28:35;;;;;;;10.95;5.07;;;20.00;99.90;;;19.55;100.00;101693.63;4151656;28;20789;-74
2023/08/11 01:30:36;;;;;;;17.27;5.72;;;20.00;99.90;;;19.56;100.00;101697.94;4168107;28;20056;-73
2023/08/11 01:32:38;;;;;;;13.35;5.40;;;20.00;99.90;;;19.55;100.00;101698.97;4153270;28;20038;-73
2023/08/11 01:34:39;;;;;;;11.88;4.97;;;20.00;99.90;;;19.53;100.00;101697.53;4151941;28;20030;-73
2023/08/11 01:36:41;;;;;;;11.65;4.80;;;20.00;99.90;;;19.55;100.00;101698.97;4151893;28;20486;-73
2023/08/11 01:38:42;;;;;;;15.75;6.65;;;20.00;99.90;;;19.59;100.00;101710.13;4135358;28;20402;-73
2023/08/11 01:40:43;;;;;;;14.95;6.07;;;20.00;99.90;;;19.45;100.00;101682.41;4148995;28;20027;-73
2023/08/11 01:42:45;;;;;;;17.88;5.85;;;20.00;99.90;;;19.58;100.00;101703.13;4135518;28;20375;-73
2023/08/11 01:44:46;;;;;;;11.48;5.35;;;20.00;99.90;;;19.57;100.00;101694.25;4136509;28;20498;-73
2023/08/11 01:46:48;;;;;;;17.15;5.88;;;20.10;99.90;;;19.56;100.00;101689.91;4135529;28;20085;-73
2023/08/11 01:48:50;;;;;;;18.40;6.57;;;20.00;99.90;;;19.53;100.00;101684.97;4135685;28;20036;-73
2023/08/11 01:50:52;;;;;;;9.90;5.32;;;20.10;99.90;;;19.60;100.00;101703.75;4135510;28;20490;-74
2023/08/11 01:52:54;;;;;;;16.88;5.88;;;20.10;99.90;;;19.57;100.00;101699.59;4136583;28;20050;-73
2023/08/11 01:54:55;;;;;;;16.02;5.82;;;20.10;99.90;;;19.56;100.00;101700.63;4135296;28;20026;-73
2023/08/11 01:56:56;;;;;;;18.23;5.40;;;20.10;99.90;;;19.53;100.00;101690.31;4136664;28;20030;-73
2023/08/11 01:58:57;;;;;;;17.42;6.72;;;20.00;99.90;;;19.58;100.00;101695.09;4135172;28;20027;-74
2023/08/11 02:00:58;;;;;;;13.25;5.45;;;20.00;99.90;;;19.46;100.00;101680.56;4136475;28;20109;-73
2023/08/11 02:02:59;;;;;;;11.98;5.50;;;20.00;99.90;;;19.57;100.00;101691.56;4136299;28;20467;-73
2023/08/11 02:05:00;;;;;;;11.32;4.95;;;20.00;99.90;;;19.57;100.00;101696.94;4136650;28;20033;-73
2023/08/11 02:07:01;;;;;;;13.48;4.38;;;20.10;99.90;;;19.58;100.00;101695.94;4136459;28;20026;-73
2023/08/11 02:09:04;;;;;;;16.48;5.70;;;20.10;99.90;;;19.59;100.00;101689.53;4145039;28;20512;-73
2023/08/11 02:11:05;;;;;;;17.13;6.30;;;20.10;99.90;;;19.57;100.00;101685.41;4151311;28;20037;-73
2023/08/11 02:13:06;;;;;;;18.50;6.40;;;20.10;99.90;;;19.58;100.00;101685.22;4135323;28;20042;-73
2023/08/11 02:15:08;;;;;;;15.77;4.82;;;20.10;99.90;;;19.58;100.00;101692.41;4137348;28;20030;-73
2023/08/11 02:17:08;;;;;;;15.65;5.10;;;20.10;99.90;;;19.56;100.00;101694.47;4142157;28;20117;-73
2023/08/11 02:19:09;;;;;;;17.73;6.22;;;20.10;99.90;;;19.51;100.00;101686.16;4134581;28;20410;-73
2023/08/11 02:21:10;;;;;;;17.58;7.65;;;20.00;99.90;;;19.56;100.00;101695.28;4135286;28;20030;-73
2023/08/11 02:23:11;;;;;;;18.52;6.57;;;20.10;99.90;;;19.59;100.00;101702.91;4135173;28;20037;-73
2023/08/11 02:25:13;;;;;;;17.27;5.70;;;20.10;99.90;;;19.61;100.00;101700.06;4136229;28;20022;-74
2023/08/11 02:27:14;;;;;;;17.42;6.35;;;20.10;99.90;;;19.61;100.00;101690.19;4134916;28;20050;-74
2023/08/11 02:29:15;;;;;;;13.43;5.65;;;20.00;99.90;;;19.57;100.00;101686.22;4150796;28;20026;-74
2023/08/11 02:31:17;;;;;;;18.90;7.38;;;20.10;99.90;;;19.61;100.00;101687.50;4136391;28;20037;-74
2023/08/11 02:33:18;;;;;;;17.52;5.57;;;20.10;99.90;;;19.60;100.00;101693.88;4136119;28;20038;-73
2023/08/11 02:35:19;;;;;;;21.27;7.13;;;20.10;99.90;;;19.60;100.00;101687.69;4136114;28;20602;-73
2023/08/11 02:37:20;;;;;;;25.70;7.18;;;20.10;99.90;;;19.60;100.00;101688.53;4135945;28;20050;-74
2023/08/11 02:39:21;;;;;;;16.88;6.50;;;20.10;99.90;;;19.60;100.00;101685.84;4142274;28;20032;-74
2023/08/11 02:41:22;;;;;;;14.32;5.82;;;20.10;99.90;;;19.60;100.00;101699.22;4151129;28;20084;-74
2023/08/11 02:43:23;;;;;;;25.23;6.93;;;20.00;99.90;;;19.59;100.00;101684.19;4152097;28;20081;-73
2023/08/11 02:45:25;;;;;;;27.67;8.65;;;20.10;99.90;;;19.55;100.00;101682.94;4167204;28;20028;-74
2023/08/11 02:47:26;;;;;;;19.00;6.57;;;20.00;99.90;;;19.57;100.00;101690.75;4135225;28;20504;-74
2023/08/11 02:49:27;;;;;;;29.15;8.27;;;20.10;99.90;;;19.53;100.00;101682.31;4152244;28;20022;-73
2023/08/11 02:51:28;;;;;;;24.08;7.20;;;20.00;99.90;;;19.55;100.00;101680.25;4167450;28;20077;-74
2023/08/11 02:53:29;;;;;;;20.90;7.30;;;20.10;99.90;;;19.53;100.00;101681.47;4151118;28;20028;-73
2023/08/11 02:55:30;;;;;;;22.67;7.10;;;20.00;99.90;;;19.56;100.00;101679.22;4167561;28;20478;-73
2023/08/11 02:57:32;;;;;;;25.83;6.72;;;20.00;99.90;;;19.55;100.00;101676.75;4152232;28;20030;-73
2023/08/11 02:59:33;;;;;;;32.00;6.90;;;20.00;99.90;;;19.53;100.00;101689.50;4152038;28;20174;-74
2023/08/11 03:01:34;;;;;;;26.73;7.55;;;20.00;99.90;;;19.54;100.00;101685.78;4150095;28;20042;-73
2023/08/11 03:03:35;;;;;;;29.10;7.55;;;20.00;99.90;;;19.51;100.00;101684.31;4134658;28;20483;-73
2023/08/11 03:05:36;;;;;;;21.02;6.97;;;20.00;99.90;;;19.51;100.00;101691.50;4142595;28;20466;-73
2023/08/11 03:07:40;;;;;;;25.35;7.05;;;20.00;99.90;;;19.52;100.00;101704.72;4135810;28;20031;-73
2023/08/11 03:09:42;;;;;;;22.48;7.00;;;20.00;99.90;;;19.49;100.00;101705.09;4135730;28;20394;-73
2023/08/11 03:11:43;;;;;;;25.95;7.75;;;20.00;99.90;;;19.49;100.00;101699.75;4135936;28;20434;-74
2023/08/11 03:13:44;;;;;;;22.10;7.07;;;20.00;99.90;;;19.44;100.00;101693.31;4140773;28;20061;-74
2023/08/11 03:15:45;;;;;;;33.17;9.10;;;19.90;99.90;;;19.51;100.00;101702.22;4139669;28;20430;-74
2023/08/11 03:17:46;;;;;;;28.25;7.15;;;19.90;99.90;;;19.50;100.00;101701.41;4150035;28;20061;-74
2023/08/11 03:19:47;;;;;;;20.35;6.65;;;20.00;99.90;;;19.48;100.00;101703.44;4135879;28;20042;-73
2023/08/11 03:21:48;;;;;;;18.73;7.63;;;19.90;99.90;;;19.49;100.00;101693.56;4134499;28;20089;-74
2023/08/11 03:23:49;;;;;;;24.50;7.07;;;20.00;99.90;;;19.48;100.00;101697.25;4138464;28;20082;-74
2023/08/11 03:25:50;;;;;;;22.85;6.00;;;20.00;99.90;;;19.49;100.00;101691.72;4135757;28;20030;-73
2023/08/11 03:27:51;;;;;;;23.63;6.68;;;20.00;99.90;;;19.37;100.00;101665.63;4134273;28;20046;-73
2023/08/11 03:29:52;;;;;;;24.52;6.45;;;19.90;99.90;;;19.50;100.00;101688.03;4143980;28;20081;-73
2023/08/11 03:31:52;;;;;;;21.65;8.07;;;20.00;99.90;;;19.50;100.00;101690.72;4167865;28;20018;-73
2023/08/11 03:33:53;;;;;;;22.70;6.45;;;20.00;99.90;;;19.33;100.00;101651.78;4141083;28;20402;-73
2023/08/11 03:35:54;;;;;;;21.45;6.07;;;19.90;99.90;;;19.37;100.00;101658.44;4137756;28;20022;-74
2023/08/11 03:37:55;;;;;;;30.80;8.00;;;20.00;99.90;;;19.46;100.00;101672.53;4153840;28;20041;-73
2023/08/11 03:39:56;;;;;;;31.77;7.80;;;20.00;99.90;;;19.49;100.00;101672.97;4148216;28;20038;-73
2023/08/11 03:41:57;;;;;;;23.88;5.90;;;19.90;99.90;;;19.47;100.00;101680.38;4141065;28;20053;-73
2023/08/11 03:43:57;;;;;;;23.08;7.07;;;20.00;99.90;;;19.47;100.00;101683.06;4149569;28;20081;-74
2023/08/11 03:45:58;;;;;;;24.33;8.05;;;19.90;99.90;;;19.48;100.00;101682.03;4143843;28;20030;-74
2023/08/11 03:47:59;;;;;;;22.85;8.02;;;19.90;99.90;;;19.46;100.00;101676.03;4154802;28;20022;-74
2023/08/11 03:50:00;;;;;;;24.45;6.70;;;19.90;99.90;;;19.44;100.00;101674.59;4140168;28;20097;-73
2023/08/11 03:52:01;;;;;;;28.55;6.78;;;19.90;99.90;;;19.44;100.00;101664.72;4138672;28;20022;-73
2023/08/11 03:54:04;;;;;;;15.65;5.35;;;19.90;99.90;;;19.45;100.00;101661.00;4147460;28;20034;-73
2023/08/11 03:56:08;;;;;;;29.52;6.57;;;19.90;99.90;;;19.43;100.00;101663.03;4138524;28;20030;-74
2023/08/11 03:58:09;;;;;;;23.25;7.28;;;19.90;99.90;;;19.31;100.00;101653.84;4138209;28;20065;-73
2023/08/11 04:00:14;;;;;;;17.08;5.90;;;19.80;99.90;;;19.28;100.00;101663.06;4136890;28;20035;-73
2023/08/11 04:02:16;;;;;;;23.58;6.97;;;19.80;99.90;;;19.21;100.00;101664.00;4139170;28;20034;-72
2023/08/11 04:04:17;;;;;;;23.15;6.57;;;19.70;99.90;;;19.15;100.00;101664.78;4131060;28;20463;-72
2023/08/11 04:06:18;;;;;;;19.95;5.60;;;19.70;99.90;;;19.06;100.00;101671.25;4151987;28;20026;-73
2023/08/11 04:08:20;;;;;;;18.10;6.30;;;19.60;99.90;;;19.00;100.00;101658.63;4154145;28;20528;-73
2023/08/11 04:10:21;;;;;;;21.75;6.05;;;19.50;99.90;;;18.93;100.00;101665.78;4169562;28;20025;-73
2023/08/11 04:12:22;;;;;;;30.77;7.72;;;19.40;99.90;;;18.86;100.00;101664.84;4154413;28;20022;-73
2023/08/11 04:14:23;;;;;;;25.73;7.13;;;19.40;99.90;;;18.83;100.00;101671.41;4139241;28;20038;-73
2023/08/11 04:16:24;;;;;;;18.42;5.63;;;19.30;99.90;;;18.64;100.00;101650.59;4147447;28;20089;-73
2023/08/11 04:18:24;;;;;;;19.58;6.78;;;19.30;99.90;;;18.69;100.00;101669.59;4147786;28;20030;-73
2023/08/11 04:20:28;;;;;;;24.63;6.43;;;19.20;99.90;;;18.64;100.00;101669.31;4138125;28;20478;-73
2023/08/11 04:22:28;;;;;;;26.83;6.70;;;19.10;99.90;;;18.58;100.00;101664.69;4138848;28;20030;-73
2023/08/11 04:24:29;;;;;;;21.05;6.18;;;19.10;99.90;;;18.48;100.00;101648.94;4136897;28;20038;-73
2023/08/11 04:26:30;;;;;;;21.75;6.45;;;19.10;99.90;;;18.56;100.00;101658.72;4136759;28;20370;-73
2023/08/11 04:28:32;;;;;;;22.95;6.75;;;19.00;99.90;;;18.55;100.00;101663.22;4136663;28;20437;-73
2023/08/11 04:30:33;;;;;;;24.98;6.75;;;19.00;99.90;;;18.55;100.00;101667.75;4136671;28;20074;-73
2023/08/11 04:32:34;;;;;;;25.92;7.15;;;19.00;99.90;;;18.50;100.00;101665.63;4139805;28;20075;-73
2023/08/11 04:34:36;;;;;;;20.13;6.85;;;19.00;99.90;;;18.49;100.00;101663.97;4146388;28;20058;-73
2023/08/11 04:36:37;;;;;;;25.70;7.10;;;18.90;99.90;;;18.50;100.00;101662.97;4147896;28;20033;-73
2023/08/11 04:38:38;;;;;;;37.42;8.90;;;19.00;99.90;;;18.46;100.00;101664.31;4153848;28;20033;-73
2023/08/11 04:40:38;;;;;;;26.38;7.35;;;19.00;99.90;;;18.51;100.00;101669.16;4149382;28;20033;-73
2023/08/11 04:42:43;;;;;;;24.05;7.13;;;19.00;99.90;;;18.53;100.00;101673.28;4142611;28;20409;-73
2023/08/11 04:44:44;;;;;;;27.92;7.10;;;19.00;99.90;;;18.57;100.00;101677.25;4152459;28;20026;-73
2023/08/11 04:46:45;;;;;;;29.92;7.38;;;19.00;99.90;;;18.57;100.00;101665.72;4169096;28;20029;-73
2023/08/11 04:48:45;;;;;;;18.70;7.07;;;19.00;99.90;;;18.54;100.00;101658.09;4150527;28;20033;-73
2023/08/11 04:50:52;;;;;;;24.20;7.55;;;19.00;99.90;;;18.50;100.00;101654.94;4136489;28;20026;-73
2023/08/11 04:52:53;;;;;;;18.42;6.07;;;19.00;99.90;;;18.48;100.00;101664.97;4143131;28;20030;-73
2023/08/11 04:54:54;;;;;;;22.55;7.15;;;18.90;99.90;;;18.45;100.00;101654.66;4139730;28;20390;-73
2023/08/11 04:56:55;;;;;;;19.90;6.25;;;18.90;99.90;;;18.42;100.00;101649.69;4136476;28;20026;-73
2023/08/11 04:58:56;;;;;;;24.73;7.32;;;18.90;99.90;;;18.44;100.00;101652.16;4150782;28;20025;-73
2023/08/11 05:00:57;;;;;;;25.42;6.75;;;18.90;99.90;;;18.42;100.00;101655.03;4158345;28;20026;-74
2023/08/11 05:02:57;;;;;;;14.93;5.68;;;18.90;99.90;;;18.42;100.00;101651.53;4150001;28;20029;-73
2023/08/11 05:04:58;;;;;;;23.48;6.35;;;18.90;99.90;;;18.43;100.00;101653.19;4153772;28;20033;-73
2023/08/11 05:07:00;;;;;;;20.42;6.15;;;18.90;99.90;;;18.42;100.00;101647.00;4168865;28;20017;-74
2023/08/11 05:09:04;;;;;;;16.98;6.00;;;19.00;99.90;;;18.51;100.00;101653.94;4152194;28;20060;-74
2023/08/11 05:11:05;;;;;;;17.25;5.45;;;18.90;99.90;;;18.52;100.00;101652.91;4152200;28;20483;-73
2023/08/11 05:13:06;;;;;;;15.57;5.93;;;19.00;99.90;;;18.52;100.00;101646.72;4149758;28;20034;-73
2023/08/11 05:15:07;;;;;;;20.88;6.03;;;19.00;99.90;;;18.52;100.00;101644.91;4137155;28;20026;-73
2023/08/11 05:17:09;;;;;;;16.40;5.40;;;19.00;99.90;;;18.54;100.00;101640.22;4151017;28;20037;-73
2023/08/11 05:19:09;;;;;;;16.83;5.70;;;19.00;99.90;;;18.64;100.00;101651.44;4152126;28;20021;-73
2023/08/11 05:21:15;;;;;;;13.80;5.85;;;19.10;99.90;;;18.66;100.00;101649.41;4153657;28;20129;-73
2023/08/11 05:23:16;;;;;;;9.98;5.18;;;19.10;99.90;;;18.63;100.00;101646.28;4145943;28;20061;-73
2023/08/11 05:25:17;;;;;;;14.52;5.20;;;19.20;99.90;;;18.70;100.00;101653.34;4137093;28;20073;-73
2023/08/11 05:27:18;;;;;;;20.20;5.68;;;19.20;99.90;;;18.75;100.00;101653.66;4136042;28;20030;-73
2023/08/11 05:29:19;;;;;;;19.08;5.80;;;19.20;99.90;;;18.78;100.00;101663.97;4136780;28;20057;-74
2023/08/11 05:31:20;;;;;;;11.07;4.63;;;19.30;99.90;;;18.73;100.00;101641.47;4135688;28;20030;-74
2023/08/11 05:33:22;;;;;;;20.25;6.35;;;19.30;99.90;;;18.83;100.00;101654.53;4143143;28;20485;-74
2023/08/11 05:35:24;;;;;;;15.27;6.28;;;19.30;99.90;;;18.89;100.00;101661.81;4136990;28;20113;-74
2023/08/11 05:37:25;;;;;;;24.15;5.90;;;19.30;99.90;;;18.91;100.00;101660.59;4139404;28;20025;-74
2023/08/11 05:39:26;;;;;;;16.63;5.75;;;19.30;99.90;;;18.96;100.00;101671.56;4142328;28;20037;-74
2023/08/11 05:41:26;;;;;;;13.07;4.80;;;19.40;99.90;;;19.02;100.00;101672.66;4153051;28;20026;-73
2023/08/11 05:43:27;;;;;;;19.10;5.15;;;19.40;99.90;;;19.07;100.00;101679.09;4148836;28;20030;-73
2023/08/11 05:45:28;;;;;;;12.95;6.18;;;19.50;99.90;;;19.10;100.00;101662.69;4135682;28;20080;-74
2023/08/11 05:47:29;;;;;;;11.40;5.00;;;19.60;99.90;;;19.13;100.00;101651.59;4136771;28;20023;-74
2023/08/11 05:49:30;;;;;;;17.70;5.43;;;19.70;99.90;;;19.34;100.00;101680.22;4135561;28;20019;-74
2023/08/11 05:51:31;;;;;;;10.00;4.65;;;19.70;99.90;;;19.44;100.00;101685.28;4136777;28;20034;-74
2023/08/11 05:53:32;;;;;;;11.85;4.72;;;19.80;99.90;;;19.51;100.00;101691.50;4143169;28;20018;-74
2023/08/11 05:55:32;;;;;;;16.35;4.82;;;19.90;99.90;;;19.57;100.00;101688.91;4136079;28;20037;-74
2023/08/11 05:57:33;;;;;;;12.43;4.50;;;20.00;99.90;;;19.69;100.00;101689.22;4136812;28;20034;-74
2023/08/11 05:59:34;;;;;;;11.23;4.57;;;20.10;99.90;;;19.77;100.00;101700.63;4135113;28;20524;-74
2023/08/11 06:01:35;;;;;;;10.35;4.65;;;20.10;99.90;;;19.79;100.00;101703.94;4136436;28;20038;-74
2023/08/11 06:03:36;;;;;;;11.25;5.13;;;20.20;99.90;;;19.83;100.00;101707.88;4144904;28;20136;-74
2023/08/11 06:05:37;;;;;;;13.82;4.07;;;20.20;99.90;;;19.86;100.00;101707.50;4151615;28;20014;-74
2023/08/11 06:07:39;;;;;;;11.32;4.38;;;20.30;99.90;;;19.92;100.00;101708.59;4151412;28;20030;-74
2023/08/11 06:09:40;;;;;;;16.58;4.40;;;20.40;99.90;;;19.93;100.00;101710.22;4167703;28;20028;-74
2023/08/11 06:11:40;;;;;;;13.52;4.93;;;20.30;99.90;;;19.92;100.00;101699.72;4152706;28;20033;-74
2023/08/11 06:13:42;;;;;;;14.40;4.50;;;20.40;99.90;;;19.89;100.00;101691.03;4144189;28;20097;-74
2023/08/11 06:15:43;;;;;;;14.30;4.82;;;20.40;99.90;;;20.00;100.00;101700.41;4138780;28;20029;-74
2023/08/11 06:17:49;;;;;;;11.60;4.18;;;20.40;99.90;;;19.97;100.00;101705.31;4150990;28;20033;-74
2023/08/11 06:19:50;;;;;;;12.80;4.50;;;20.40;99.90;;;19.99;100.00;101713.97;4151402;28;20104;-74
2023/08/11 06:21:51;;;;;;;11.02;3.78;;;20.40;99.90;;;19.99;100.00;101705.94;4152603;28;20026;-74
2023/08/11 06:23:51;;;;;;;14.02;4.60;;;20.50;99.90;;;19.91;100.00;101690.84;4155506;28;20085;-74
2023/08/11 06:25:52;;;;;;;11.35;4.28;;;20.50;99.90;;;20.08;100.00;101704.78;4151562;28;20014;-75
2023/08/11 06:27:53;;;;;;;13.20;4.40;;;20.60;99.90;;;20.15;100.00;101705.66;4148002;28;20022;-74
2023/08/11 06:29:54;;;;;;;13.60;4.43;;;20.60;99.90;;;20.20;100.00;101714.78;4134646;28;20049;-74
2023/08/11 06:31:55;;;;;;;12.52;4.40;;;20.60;99.90;;;20.22;100.00;101714.59;4136146;28;20026;-74
2023/08/11 06:33:56;;;;;;;14.88;4.28;;;20.70;99.90;;;20.30;100.00;101709.94;4146023;28;20076;-74
2023/08/11 06:35:57;;;;;;;10.80;3.60;;;20.70;99.90;;;20.33;100.00;101698.00;4151314;28;20058;-74
2023/08/11 06:37:58;;;;;;;15.85;4.18;;;20.80;99.90;;;20.38;100.00;101701.72;4119018;28;20023;-74
2023/08/11 06:39:59;;;;;;;8.57;3.80;;;20.80;99.90;;;20.45;100.00;101701.78;4162463;28;20044;-74
2023/08/11 06:41:59;;;;;;;18.45;4.68;;;20.90;99.90;;;20.49;100.00;101699.53;4151065;28;20382;-74
2023/08/11 06:44:00;;;;;;;9.75;3.63;;;20.90;99.90;;;20.54;100.00;101710.50;4146460;28;20027;-74
2023/08/11 06:46:01;;;;;;;10.43;3.30;;;20.90;99.90;;;20.56;100.00;101703.91;4136103;28;20033;-74
2023/08/11 06:48:02;;;;;;;9.20;3.28;;;21.00;99.90;;;20.58;100.00;101703.72;4136070;28;20027;-74
2023/08/11 06:50:04;;;;;;;13.20;4.30;;;21.00;99.90;;;20.56;100.00;101698.53;4136003;28;20465;-74
2023/08/11 06:52:05;;;;;;;13.15;4.85;;;21.00;99.90;;;20.57;100.00;101700.19;4134842;28;20426;-74
2023/08/11 06:54:05;;;;;;;12.63;4.10;;;21.10;99.90;;;20.55;100.00;101696.88;4142323;28;20085;-73
2023/08/11 06:56:06;;;;;;;13.55;3.67;;;21.10;99.90;;;20.53;100.00;101698.94;4135952;28;20034;-74
2023/08/11 06:58:07;;;;;;;8.77;3.53;;;21.00;99.90;;;20.53;100.00;101703.47;4135649;28;20038;-74
2023/08/11 07:00:09;;;;;;;9.23;4.07;;;21.00;99.90;;;20.47;100.00;101707.75;4136016;28;20038;-74
2023/08/11 07:02:10;;;;;;;11.95;3.63;;;21.00;99.90;;;20.46;100.00;101702.63;4118533;28;20035;-74
2023/08/11 07:04:11;;;;;;;10.10;3.97;;;21.00;99.90;;;20.44;100.00;101702.78;4139252;28;20022;-74
2023/08/11 07:06:12;;;;;;;10.63;4.13;;;21.00;99.90;;;20.44;100.00;101702.78;4136284;28;20037;-74
2023/08/11 07:08:13;;;;;;;8.25;4.10;;;20.90;99.90;;;20.45;100.00;101707.13;4139292;28;20053;-74
2023/08/11 07:10:14;;;;;;;10.82;4.22;;;20.90;99.90;;;20.39;100.00;101705.25;4139370;28;20394;-74
2023/08/11 07:12:15;;;;;;;13.93;3.97;;;20.90;99.90;;;20.42;100.00;101715.56;4138054;28;20026;-74
2023/08/11 07:14:16;;;;;;;14.32;4.32;;;20.90;99.90;;;20.46;100.00;101714.13;4139486;28;20114;-74
2023/08/11 07:16:16;;;;;;;15.75;5.43;;;20.90;99.90;;;20.52;100.00;101701.81;4146088;28;20529;-74
2023/08/11 07:18:17;;;;;;;11.13;4.15;;;21.00;99.90;;;20.59;100.00;101703.50;4170796;28;20032;-74
2023/08/11 07:20:18;;;;;;;12.05;4.60;;;21.00;99.90;;;20.67;100.00;101695.28;4155285;28;20112;-74
2023/08/11 07:22:19;;;;;;;10.55;3.67;;;21.10;99.90;;;20.72;100.00;101695.53;4155353;28;20044;-74
2023/08/11 07:24:20;;;;;;;10.10;3.65;;;21.20;99.90;;;20.79;100.00;101707.09;4155277;28;20022;-74
2023/08/11 07:26:21;;;;;;;10.23;4.05;;;21.30;99.90;;;20.82;100.00;101709.38;4164058;28;20040;-74
2023/08/11 07:28:22;;;;;;;11.18;3.80;;;21.30;99.90;;;20.86;100.00;101705.28;4138672;28;20082;-74
2023/08/11 07:30:22;;;;;;;9.57;3.72;;;21.30;99.90;;;20.92;100.00;101717.06;4137622;28;20085;-74
2023/08/11 07:32:23;;;;;;;13.20;4.10;;;21.40;99.90;;;20.97;100.00;101723.47;4139012;28;20039;-74
2023/08/11 07:34:24;;;;;;;10.45;4.32;;;21.40;99.90;;;21.08;100.00;101723.94;4148183;28;20578;-74
2023/08/11 07:36:25;;;;;;;10.98;3.95;;;21.50;99.90;;;21.13;100.00;101725.03;4141102;28;20026;-74
2023/08/11 07:38:26;;;;;;;11.40;3.92;;;21.60;99.90;;;21.25;100.00;101720.72;4138725;28;20085;-74
2023/08/11 07:40:27;;;;;;;9.32;3.70;;;21.70;99.90;;;21.31;100.00;101721.78;4150535;28;20033;-74
2023/08/11 07:42:28;;;;;;;12.52;4.60;;;21.70;99.90;;;21.40;100.00;101724.06;4138733;28;20478;-74
2023/08/11 07:44:33;;;;;;;8.02;3.03;;;21.80;99.90;;;21.50;100.00;101726.38;4138646;28;20026;-74
2023/08/11 07:46:35;;;;;;;13.25;3.95;;;21.90;99.90;;;21.44;100.00;101729.88;4138745;28;20022;-74
2023/08/11 07:48:36;;;;;;;8.82;3.80;;;22.00;99.90;;;21.42;100.00;101732.75;4137201;28;20041;-74
2023/08/11 07:50:37;;;;;;;8.80;3.05;;;21.90;99.90;;;21.41;100.00;101732.97;4137912;28;20023;-74
2023/08/11 07:52:38;;;;;;;10.65;3.42;;;21.90;99.90;;;21.41;100.00;101728.41;4121354;28;20110;-74
2023/08/11 07:54:39;;;;;;;9.38;3.50;;;21.90;99.90;;;21.50;100.00;101734.44;4138465;28;20073;-74
2023/08/11 07:56:39;;;;;;;8.95;3.05;;;21.90;99.90;;;21.58;100.00;101730.72;4138426;28;20394;-74
2023/08/11 07:58:41;;;;;;;7.65;2.75;;;22.00;99.90;;;21.62;100.00;101730.13;4121090;28;20039;-74
2023/08/11 08:00:42;;;;;;;10.07;2.97;;;22.10;99.90;;;21.67;100.00;101730.31;4153689;28;20041;-74
2023/08/11 08:02:44;;;;;;;9.73;3.10;;;22.20;99.90;;;21.72;100.00;101741.28;4137231;28;20510;-74
2023/08/11 08:04:45;;;;;;;6.03;2.42;;;22.20;99.90;;;21.72;100.00;101743.13;4139787;28;20026;-74
2023/08/11 08:06:46;;;;;;;7.40;2.95;;;22.20;99.90;;;21.71;100.00;101739.63;4150511;28;20061;-74
2023/08/11 08:08:46;;;;;;;7.95;2.50;;;22.20;99.90;;;21.75;100.00;101732.81;4153378;28;20555;-74
2023/08/11 08:10:47;;;;;;;7.18;2.70;;;22.30;99.90;;;21.78;100.00;101731.56;4154452;28;20501;-74
2023/08/11 08:12:48;;;;;;;5.15;2.25;;;22.30;99.90;;;21.75;100.00;101740.03;4157083;28;20025;-74
2023/08/11 08:14:49;;;;;;;6.57;1.88;;;22.30;99.90;;;21.56;100.00;101741.69;4169550;28;20060;-74
2023/08/11 08:16:50;;;;;;;3.80;1.60;;;22.20;99.90;;;21.54;100.00;101741.03;4152628;28;20025;-74